Time;durP1;ratioP1;P1;durP2;ratioP2;P2;SDS_P1;SDS_P2;PMS_P1;PMS_P2;Temp;Humidity;BMP_temperature;BMP_pressure;BME280_temperature;BME280_humidity;BME280_pressure;Samples;Min_cycle;Max_cycle;Signal;HPM_P1;HPM_P2
2021/09/13 00:01:17;;;;;;;18.20;16.30;;;;;;;17.50;69.70;99965.63;111874;1216;137204;-72
2021/09/13 00:05:11;;;;;;;19.10;16.50;;;;;;;17.47;69.92;99972.11;111907;1214;136899;-72
2021/09/13 00:09:08;;;;;;;;;;;;;;;;;;;;;
2021/09/13 00:21:49;;;;;;;18.70;16.50;;;;;;;17.34;70.35;99961.38;110772;1221;94166;-73
2021/09/13 00:25:42;;;;;;;;;;;;;;;;;;;;;
2021/09/13 00:38:13;;;;;;;19.00;16.40;;;;;;;17.19;70.78;99964.64;109886;1232;137175;-73
2021/09/13 00:42:18;;;;;;;19.30;17.20;;;;;;;17.17;70.83;99966.16;109795;1234;137851;-73
2021/09/13 00:46:24;;;;;;;19.10;17.10;;;;;;;17.19;71.01;99962.20;111567;1217;636019;-72
2021/09/13 00:50:34;;;;;;;19.50;16.40;;;;;;;17.12;70.95;99969.50;111975;1207;93902;-72
2021/09/13 00:54:33;;;;;;;19.00;17.00;;;;;;;17.09;71.04;99965.48;111670;1213;136499;-72
2021/09/13 01:07:33;;;;;;;21.30;17.40;;;;;;;16.98;71.49;99973.19;109901;1225;137524;-72
2021/09/13 01:11:39;;;;;;;18.60;16.20;;;;;;;17.03;71.58;99974.98;109753;1228;93966;-72
2021/09/13 01:31:36;;;;;;;18.50;16.60;;;;;;;16.96;71.61;99964.73;111917;1208;137369;-72
2021/09/13 01:35:45;;;;;;;20.40;16.90;;;;;;;16.94;71.61;99969.74;111680;1219;106532;-72
2021/09/13 01:44:24;;;;;;;18.50;16.60;;;;;;;16.70;71.92;99971.21;110054;1227;137818;-72
2021/09/13 01:48:29;;;;;;;18.40;16.50;;;;;;;16.68;71.94;99966.98;110103;1226;94076;-72
2021/09/13 02:00:46;;;;;;;19.30;17.20;;;;;;;16.67;72.48;99964.04;111513;1217;637027;-72
2021/09/13 02:04:55;;;;;;;21.40;19.00;;;;;;;16.68;72.34;99961.35;112278;1209;94390;-72
2021/09/13 02:13:12;;;;;;;19.40;17.40;;;;;;;16.69;72.50;99960.23;111773;1221;106863;-72
2021/09/13 02:17:12;;;;;;;;;;;;;;;;;;;;;
2021/09/13 02:21:18;;;;;;;;;;;;;;;;;;;;;
2021/09/13 02:33:12;;;;;;;;;;;;;;;;;;;;;
2021/09/13 02:37:26;;;;;;;;;;;;;;;16.58;72.99;99972.63;112218;1211;93881;-73
2021/09/13 02:49:27;;;;;;;22.20;16.70;;;;;;;16.48;73.11;99966.59;111822;1218;108003;-72
2021/09/13 02:53:36;;;;;;;20.00;16.70;;;;;;;16.41;73.31;99966.70;111395;1221;137471;-72
2021/09/13 03:18:00;;;;;;;20.10;17.80;;;;;;;16.27;73.83;99965.21;111166;1217;635576;-73
2021/09/13 03:21:51;;;;;;;20.50;17.70;;;;;;;16.24;73.91;99967.67;112052;1204;136952;-71
2021/09/13 03:30:10;;;;;;;19.90;17.40;;;;;;;16.25;74.28;99966.39;111891;1213;136960;-73
2021/09/13 03:34:18;;;;;;;20.10;17.80;;;;;;;16.30;74.17;99970.27;111714;1211;137402;-73
2021/09/13 03:43:13;;;;;;;20.50;18.10;;;;;;;16.21;74.15;99984.19;110783;1221;94058;-73
2021/09/13 03:51:00;;;;;;;21.80;17.90;;;;;;;16.24;74.39;99986.26;109935;1226;108008;-72
2021/09/13 03:55:30;;;;;;;20.50;18.30;;;;;;;16.25;74.36;99987.30;109572;1228;108653;-72
2021/09/13 04:03:04;;;;;;;20.50;18.10;;;;;;;16.29;74.38;99990.01;111341;1221;635172;-72
2021/09/13 04:15:52;;;;;;;19.90;17.10;;;;;;;16.18;74.48;99987.01;112024;1213;107699;-72
2021/09/13 04:20:01;;;;;;;21.20;17.90;;;;;;;16.19;74.59;99988.86;111923;1216;106813;-72
2021/09/13 04:28:00;;;;;;;22.60;19.50;;;;;;;16.30;74.73;99996.08;111379;1221;636616;-73
2021/09/13 04:32:11;;;;;;;22.40;19.10;;;;;;;16.28;74.43;99995.47;111981;1210;94725;-73
2021/09/13 04:36:08;;;;;;;;;;;;;;;;;;;;;
2021/09/13 04:40:25;;;;;;;22.60;19.30;;;;;;;16.34;74.55;100002.54;111500;1214;108341;-71
2021/09/13 04:44:33;;;;;;;22.90;18.00;;;;;;;16.36;74.48;100007.52;110997;1225;107220;-72
2021/09/13 04:52:47;;;;;;;23.60;19.70;;;;;;;16.40;74.30;100007.83;109582;1228;94270;-72
2021/09/13 04:56:42;;;;;;;;;;;;;;;;;;;;;
2021/09/13 05:04:20;;;;;;;21.10;18.90;;;;;;;16.50;74.24;100014.02;111338;1220;636083;-72
2021/09/13 05:08:21;;;;;;;24.20;19.20;;;;;;;16.49;74.07;100025.29;112225;1207;137113;-73
2021/09/13 05:12:31;;;;;;;23.60;19.20;;;;;;;16.45;74.07;100025.38;111958;1215;93982;-73
2021/09/13 05:24:29;;;;;;;20.90;18.00;;;;;;;16.48;74.19;100024.34;110256;1225;138331;-71
2021/09/13 05:33:00;;;;;;;22.60;19.30;;;;;;;16.54;74.24;100026.45;109876;1227;137365;-72
2021/09/13 05:41:00;;;;;;;25.30;19.50;;;;;;;16.67;74.25;100024.26;109596;1228;107114;-72
2021/09/13 05:43:49;;;;;;;20.50;17.90;;;;;;;16.73;74.02;100023.55;109319;1235;138829;-73
2021/09/13 05:56:11;;;;;;;20.10;17.40;;;;;;;16.96;73.66;100029.84;109468;1228;137429;-72
2021/09/13 05:59:57;;;;;;;22.10;18.10;;;;;;;17.00;73.64;100030.30;109615;1232;107338;-72
2021/09/13 06:08:09;;;;;;;19.20;17.20;;;;;;;17.13;73.39;100031.95;109150;1240;137665;-73
2021/09/13 06:11:38;;;;;;;;;;;;;;;;;;;;;
2021/09/13 06:19:48;;;;;;;22.30;18.40;;;;;;;17.23;73.18;100031.30;109335;1231;108578;-73
2021/09/13 06:22:40;;;;;;;24.10;18.70;;;;;;;17.27;73.14;100029.48;109508;1237;108519;-73
2021/09/13 06:26:02;;;;;;;23.80;19.00;;;;;;;17.31;73.23;100029.59;109406;1237;137809;-73
2021/09/13 06:34:03;;;;;;;20.50;16.60;;;;;;;17.31;73.17;100024.83;109679;1234;137170;-72
2021/09/13 06:37:22;;;;;;;;;;;;;;;;;;;;;
2021/09/13 06:41:38;;;;;;;;;;;;;;;;;;;;;
2021/09/13 06:48:52;;;;;;;;;;;;;;;;;;;;;
2021/09/13 06:53:14;;;;;;;23.20;19.00;;;;;;;17.79;73.07;100027.23;110309;1228;137874;-73
2021/09/13 06:56:55;;;;;;;24.30;20.00;;;;;;;17.92;72.81;100028.83;110639;1218;137803;-74
2021/09/13 07:08:51;;;;;;;21.50;18.60;;;;;;;18.21;72.24;100040.77;110525;1220;138147;-72
2021/09/13 07:13:00;;;;;;;31.70;22.50;;;;;;;18.37;72.23;100043.71;111407;1222;107270;-72
2021/09/13 07:16:47;;;;;;;25.90;20.30;;;;;;;18.56;71.87;100044.58;110963;1223;137192;-73
2021/09/13 07:25:00;;;;;;;;;;;;;;;;;;;;;
2021/09/13 07:29:15;;;;;;;20.40;18.10;;;;;;;19.22;70.77;100044.58;110330;1220;137162;-72
2021/09/13 07:33:12;;;;;;;;;;;;;;;;;;;;;
2021/09/13 07:37:32;;;;;;;23.50;17.50;;;;;;;19.27;69.94;100045.81;110085;1226;106182;-72
2021/09/13 07:49:08;;;;;;;;;;;;;;;;;;;;;
2021/09/13 07:52:59;;;;;;;;;;;;;;;;;;;;;
2021/09/13 07:56:10;;;;;;;17.90;15.20;;;;;;;20.91;68.37;100045.88;109594;1232;137774;-73
2021/09/13 07:59:28;;;;;;;;;;;;;;;;;;;;;
2021/09/13 08:03:23;;;;;;;14.00;12.60;;;;;;;23.99;63.04;100041.94;110023;1224;137608;-73
2021/09/13 08:06:39;;;;;;;;;;;;;;;;;;;;;
2021/09/13 08:09:41;;;;;;;12.90;11.60;;;;;;;27.06;57.55;100038.36;110620;1220;137184;-70
2021/09/13 08:12:30;;;;;;;11.70;10.30;;;;;;;28.62;55.34;100037.48;111058;1220;108028;-72
2021/09/13 08:15:24;;;;;;;12.80;10.50;;;;;;;29.98;52.77;100035.70;111413;1215;137582;-72
2021/09/13 08:18:12;;;;;;;11.50;10.40;;;;;;;31.09;50.22;100038.76;111741;1219;94948;-72
2021/09/13 08:21:10;;;;;;;11.50;9.50;;;;;;;32.11;48.28;100038.29;111731;1216;137375;-73
2021/09/13 08:23:59;;;;;;;10.50;9.30;;;;;;;33.07;46.18;100040.42;112009;1215;99875;-73
2021/09/13 08:26:56;;;;;;;9.90;8.30;;;;;;;33.90;44.45;100036.52;112029;1212;136983;-73
2021/09/13 08:29:43;;;;;;;10.70;9.70;;;;;;;34.56;42.48;100035.64;112196;1208;98748;-72
2021/09/13 08:32:32;;;;;;;9.20;8.30;;;;;;;34.96;40.87;100039.27;112195;1210;137172;-73
2021/09/13 08:35:31;;;;;;;9.20;8.20;;;;;;;35.38;39.89;100040.52;112351;1208;94891;-73
2021/09/13 08:38:18;;;;;;;8.40;7.60;;;;;;;35.71;38.57;100040.84;112271;1207;136972;-72
2021/09/13 08:41:06;;;;;;;8.60;7.80;;;;;;;36.02;37.88;100043.67;112400;1202;96265;-72
2021/09/13 08:44:15;;;;;;;8.30;7.30;;;;;;;36.29;37.10;100048.92;112251;1201;137171;-73
2021/09/13 08:47:12;;;;;;;7.80;7.00;;;;;;;36.64;36.65;100051.59;112403;1207;94874;-73
2021/09/13 08:50:26;;;;;;;8.40;7.40;;;;;;;36.99;35.68;100050.70;112290;1207;137396;-73
2021/09/13 08:53:29;;;;;;;7.90;7.20;;;;;;;37.26;34.90;100050.77;112349;1208;99647;-73
2021/09/13 08:56:23;;;;;;;7.40;6.70;;;;;;;37.30;34.15;100055.41;112309;1201;136973;-73
2021/09/13 08:59:15;;;;;;;8.40;7.60;;;;;;;37.32;33.70;100059.08;112386;1201;99831;-73
2021/09/13 09:02:04;;;;;;;8.40;7.50;;;;;;;37.39;33.24;100062.14;112188;1208;137066;-73
2021/09/13 09:05:12;;;;;;;6.70;6.00;;;;;;;37.44;33.13;100061.59;112679;1197;94838;-73
2021/09/13 09:07:59;;;;;;;7.50;6.80;;;;;;;37.50;32.57;100062.94;112627;1204;137018;-72
2021/09/13 09:10:53;;;;;;;7.00;6.30;;;;;;;37.47;32.00;100063.85;112871;1204;97807;-72
2021/09/13 09:13:43;;;;;;;6.90;6.00;;;;;;;37.20;31.39;100062.92;112610;1200;98807;-73
2021/09/13 09:16:31;;;;;;;6.00;5.40;;;;;;;36.62;31.32;100062.13;112660;1204;136750;-72
2021/09/13 09:19:21;;;;;;;7.50;5.70;;;;;;;36.36;31.55;100059.61;112798;1203;94954;-73
2021/09/13 09:22:27;;;;;;;7.00;5.60;;;;;;;36.38;31.75;100057.66;112632;1199;136931;-73
2021/09/13 09:25:28;;;;;;;7.10;6.40;;;;;;;36.20;31.30;100058.92;112751;1198;98527;-72
2021/09/13 09:28:16;;;;;;;6.90;6.30;;;;;;;35.78;31.60;100055.45;112538;1198;137276;-73
2021/09/13 09:31:03;;;;;;;6.60;5.70;;;;;;;35.38;32.08;100056.19;112731;1204;94816;-72
2021/09/13 09:33:51;;;;;;;6.40;5.30;;;;;;;35.29;31.65;100052.16;112705;1203;136978;-72
2021/09/13 09:36:58;;;;;;;5.00;4.60;;;;;;;35.09;31.62;100048.74;112729;1204;99826;-73
2021/09/13 09:40:08;;;;;;;7.10;5.50;;;;;;;34.88;31.98;100051.85;112740;1203;137259;-72
2021/09/13 09:42:56;;;;;;;6.30;5.60;;;;;;;35.02;32.01;100050.27;112818;1203;98801;-73
2021/09/13 09:45:43;;;;;;;6.10;5.20;;;;;;;35.21;31.80;100051.37;112752;1198;136888;-73
2021/09/13 09:48:32;;;;;;;5.70;4.60;;;;;;;35.07;31.03;100051.65;112848;1195;94813;-72
2021/09/13 09:51:35;;;;;;;6.40;5.20;;;;;;;34.40;31.48;100047.77;112632;1198;136888;-73
2021/09/13 09:54:32;;;;;;;5.50;4.60;;;;;;;34.15;31.75;100042.31;112719;1197;98439;-71
2021/09/13 09:58:11;;;;;;;5.20;4.70;;;;;;;33.53;31.52;100046.59;112673;1204;137027;-72
2021/09/13 10:01:09;;;;;;;4.70;4.20;;;;;;;32.89;32.22;100053.21;112795;1205;94803;-73
2021/09/13 10:04:22;;;;;;;4.90;4.40;;;;;;;32.83;32.51;100052.59;112688;1204;136968;-73
2021/09/13 10:07:22;;;;;;;4.80;4.40;;;;;;;32.71;32.34;100050.09;112698;1198;100924;-73
2021/09/13 10:10:12;;;;;;;5.00;4.40;;;;;;;32.45;32.78;100051.10;112677;1204;136950;-71
2021/09/13 10:13:16;;;;;;;4.90;4.50;;;;;;;32.41;32.96;100049.15;112849;1204;108638;-73
2021/09/13 10:16:16;;;;;;;4.60;4.20;;;;;;;32.01;32.87;100053.14;112679;1204;137179;-72
2021/09/13 10:19:45;;;;;;;5.90;4.90;;;;;;;31.35;33.58;100049.23;112794;1200;94893;-72
2021/09/13 10:23:09;;;;;;;;;;;;;;;;;;;;;
2021/09/13 10:26:27;;;;;;;5.40;4.90;;;;;;;29.86;35.14;100058.16;112713;1204;137156;-72
2021/09/13 10:29:32;;;;;;;5.70;5.20;;;;;;;29.41;35.99;100059.94;112761;1205;108064;-72
2021/09/13 10:32:30;;;;;;;7.10;6.40;;;;;;;28.78;36.69;100062.66;112628;1198;137310;-73
2021/09/13 10:36:25;;;;;;;;;;;;;;;;;;;;;
2021/09/13 10:40:54;;;;;;;6.60;6.00;;;;;;;27.52;38.61;100058.52;112711;1203;135770;-73
2021/09/13 10:44:27;;;;;;;7.50;6.30;;;;;;;26.90;39.77;100063.23;112305;1209;106062;-73
2021/09/13 10:47:58;;;;;;;6.90;6.30;;;;;;;26.50;40.32;100069.75;112115;1211;107636;-72
2021/09/13 10:51:39;;;;;;;11.20;6.20;;;;;;;25.99;41.24;100066.42;112056;1205;137380;-73
2021/09/13 10:55:30;;;;;;;6.70;6.10;;;;;;;25.52;42.25;100062.85;112234;1203;96185;-73
2021/09/13 10:59:01;;;;;;;8.00;6.40;;;;;;;25.34;43.00;100067.35;111994;1209;136962;-72
2021/09/13 11:02:58;;;;;;;7.30;6.60;;;;;;;25.50;43.44;100064.44;112149;1204;107149;-73
2021/09/13 11:06:39;;;;;;;;;;;;;;;;;;;;;
2021/09/13 11:10:37;;;;;;;;;;;;;;;;;;;;;
2021/09/13 11:18:54;;;;;;;6.70;6.10;;;;;;;24.35;45.15;100068.49;111161;1214;136887;-73
2021/09/13 11:22:40;;;;;;;;;;;;;;;;;;;;;
2021/09/13 11:26:16;;;;;;;8.60;7.70;;;;;;;23.79;46.69;100072.48;111542;1221;108558;-73
2021/09/13 11:30:19;;;;;;;;;;;;;;;;;;;;;
2021/09/13 11:34:24;;;;;;;8.30;7.40;;;;;;;23.82;47.01;100070.27;111371;1224;137369;-72
2021/09/13 11:37:52;;;;;;;7.40;6.70;;;;;;;24.23;47.15;100071.38;111527;1221;110003;-72
2021/09/13 11:41:43;;;;;;;8.00;7.30;;;;;;;24.97;46.81;100066.27;111710;1220;137349;-72
2021/09/13 11:45:12;;;;;;;8.00;7.20;;;;;;;25.60;45.56;100058.52;112061;1213;108439;-73
2021/09/13 11:48:39;;;;;;;6.20;5.60;;;;;;;26.11;44.40;100056.50;112078;1213;96380;-73
2021/09/13 11:52:13;;;;;;;4.90;4.30;;;;;;;26.52;42.99;100048.08;112069;1206;96428;-73
2021/09/13 11:55:27;;;;;;;5.30;4.80;;;;;;;26.77;42.03;100047.81;112247;1202;109820;-73
2021/09/13 11:58:51;;;;;;;5.10;4.60;;;;;;;26.74;42.00;100048.82;112355;1204;137326;-72
2021/09/13 12:02:29;;;;;;;5.50;4.90;;;;;;;26.57;41.21;100053.16;112788;1204;107513;-72
2021/09/13 12:06:12;;;;;;;;;;;;;;;;;;;;;
2021/09/13 12:10:12;;;;;;;6.00;4.90;;;;;;;26.23;41.85;100054.03;112573;1203;96259;-72
2021/09/13 12:13:18;;;;;;;4.60;4.20;;;;;;;26.08;42.11;100050.10;112366;1203;136899;-72
2021/09/13 12:17:00;;;;;;;5.60;5.10;;;;;;;25.99;42.17;100047.23;112512;1198;106109;-73
2021/09/13 12:20:59;;;;;;;5.80;5.30;;;;;;;25.82;42.49;100049.61;112355;1208;107558;-74
2021/09/13 12:25:07;;;;;;;5.80;5.20;;;;;;;25.60;42.71;100051.45;112247;1199;137268;-73
2021/09/13 12:28:49;;;;;;;5.90;5.30;;;;;;;25.40;43.23;100047.73;112447;1200;96200;-72
2021/09/13 12:32:30;;;;;;;6.30;5.50;;;;;;;25.21;43.51;100044.14;112254;1206;109848;-73
2021/09/13 12:36:08;;;;;;;5.50;5.00;;;;;;;25.17;44.12;100037.23;112171;1202;107617;-73
2021/09/13 12:40:34;;;;;;;6.00;5.40;;;;;;;25.26;44.13;100037.67;112237;1211;108542;-73
2021/09/13 12:44:09;;;;;;;;;;;;;;;;;;;;;
2021/09/13 12:47:41;;;;;;;;;;;;;;;;;;;;;
2021/09/13 12:51:43;;;;;;;5.20;4.70;;;;;;;25.15;44.72;100035.86;111876;1212;137099;-73
2021/09/13 12:55:32;;;;;;;5.80;5.30;;;;;;;25.06;44.66;100037.12;111529;1216;137918;-72
2021/09/13 12:59:50;;;;;;;8.90;6.10;;;;;;;24.86;44.71;100044.73;111626;1216;108616;-72
2021/09/13 13:03:30;;;;;;;6.40;5.60;;;;;;;24.63;45.48;100041.20;111155;1224;96270;-74
2021/09/13 13:07:54;;;;;;;6.40;5.80;;;;;;;24.46;45.70;100043.29;111371;1219;635830;-72
2021/09/13 13:11:16;;;;;;;6.50;5.70;;;;;;;24.21;46.43;100045.98;112124;1204;93857;-73
2021/09/13 13:14:25;;;;;;;7.50;6.80;;;;;;;24.02;46.74;100049.52;112075;1204;136469;-73
2021/09/13 13:18:34;;;;;;;5.80;5.20;;;;;;;23.77;47.42;100052.30;112189;1211;107091;-72
2021/09/13 13:22:34;;;;;;;;;;;;;;;;;;;;;
2021/09/13 13:26:51;;;;;;;6.10;5.10;;;;;;;23.29;48.43;100051.20;111855;1208;136782;-73
2021/09/13 13:30:17;;;;;;;6.20;5.30;;;;;;;23.10;48.74;100049.85;111487;1220;93936;-73
2021/09/13 13:33:43;;;;;;;;;;;;;;;;;;;;;
2021/09/13 13:37:12;;;;;;;5.50;5.00;;;;;;;22.80;49.22;100045.41;111588;1221;107243;-73
2021/09/13 13:40:30;;;;;;;6.40;5.10;;;;;;;22.73;49.22;100048.16;111450;1215;107280;-74
2021/09/13 13:44:41;;;;;;;7.40;6.30;;;;;;;22.68;49.37;100047.52;111534;1221;108509;-72
2021/09/13 13:48:52;;;;;;;5.30;4.80;;;;;;;22.64;49.48;100045.77;111322;1222;95533;-72
2021/09/13 13:52:48;;;;;;;;;;;;;;;;;;;;;
2021/09/13 13:56:55;;;;;;;;;;;;;;;;;;;;;
2021/09/13 14:01:31;;;;;;;6.10;5.50;;;;;;;22.74;49.58;100052.11;111379;1215;106164;-71
2021/09/13 14:04:53;;;;;;;;;;;;;;;;;;;;;
2021/09/13 14:08:33;;;;;;;6.30;5.20;;;;;;;22.90;49.57;100057.44;111906;1217;94902;-74
2021/09/13 14:11:35;;;;;;;5.70;5.10;;;;;;;22.97;49.52;100051.20;111701;1218;136836;-72
2021/09/13 14:15:33;;;;;;;;;;;;;;;;;;;;;
2021/09/13 14:19:21;;;;;;;;;;;;;;;;;;;;;
2021/09/13 14:27:22;;;;;;;5.80;5.20;;;;;;;22.90;50.04;100066.14;111176;1222;94926;-73
2021/09/13 14:31:38;;;;;;;;;;;;;;;;;;;;;
2021/09/13 14:35:42;;;;;;;7.80;5.00;;;;;;;22.79;50.73;100073.80;111786;1209;137381;-73
2021/09/13 14:38:57;;;;;;;7.20;6.00;;;;;;;22.86;50.62;100073.96;111926;1216;105784;-73
2021/09/13 14:45:58;;;;;;;5.90;4.90;;;;;;;23.01;50.11;100070.10;112002;1208;94887;-71
2021/09/13 14:49:34;;;;;;;;;;;;;;;;;;;;;
2021/09/13 14:53:04;;;;;;;5.90;5.30;;;;;;;23.07;49.82;100073.39;112015;1207;109371;-72
2021/09/13 14:56:33;;;;;;;5.90;5.10;;;;;;;23.07;49.77;100074.67;112022;1207;106150;-73
2021/09/13 15:00:09;;;;;;;6.70;4.90;;;;;;;23.06;49.75;100071.77;112005;1210;137012;-72
2021/09/13 15:04:01;;;;;;;8.80;5.40;;;;;;;23.07;49.80;100068.09;112362;1204;94785;-74
2021/09/13 15:08:02;;;;;;;7.10;5.00;;;;;;;23.04;49.63;100069.74;112192;1201;136621;-74
2021/09/13 15:11:16;;;;;;;6.00;5.20;;;;;;;22.98;49.56;100073.86;112107;1212;108400;-72
2021/09/13 15:15:26;;;;;;;6.70;5.90;;;;;;;22.88;49.67;100073.38;112102;1212;106320;-72
2021/09/13 15:18:23;;;;;;;6.80;6.10;;;;;;;22.79;49.83;100072.91;111629;1211;137311;-72
2021/09/13 15:22:23;;;;;;;6.40;5.60;;;;;;;22.68;49.54;100070.52;111685;1212;95037;-72
2021/09/13 15:26:25;;;;;;;7.50;5.50;;;;;;;22.51;49.89;100073.72;110800;1216;137356;-72
2021/09/13 15:34:33;;;;;;;7.90;6.10;;;;;;;22.33;50.51;100071.05;110649;1225;106913;-73
2021/09/13 15:38:15;;;;;;;8.00;6.70;;;;;;;22.26;50.58;100069.98;110446;1222;136945;-73
2021/09/13 15:41:23;;;;;;;7.20;6.50;;;;;;;22.22;50.87;100068.59;110574;1224;94981;-72
2021/09/13 15:44:59;;;;;;;;;;;;;;;;;;;;;
2021/09/13 15:48:08;;;;;;;7.80;5.80;;;;;;;22.10;51.01;100069.79;110928;1216;138187;-73
2021/09/13 15:51:42;;;;;;;6.30;5.40;;;;;;;22.08;51.29;100069.02;111623;1214;105020;-74
2021/09/13 15:54:30;;;;;;;8.40;5.50;;;;;;;22.00;51.37;100069.52;111689;1212;137326;-72
2021/09/13 15:58:30;;;;;;;7.50;6.00;;;;;;;21.92;51.59;100069.67;112063;1204;94999;-72
2021/09/13 16:02:03;;;;;;;;;;;;;;;;;;;;;
2021/09/13 16:05:44;;;;;;;8.30;7.20;;;;;;;21.76;51.94;100073.27;112391;1203;108471;-72
2021/09/13 16:09:22;;;;;;;7.40;6.10;;;;;;;21.64;52.04;100077.36;112169;1203;106223;-72
2021/09/13 16:13:13;;;;;;;7.10;6.40;;;;;;;21.53;52.21;100085.73;112420;1199;137104;-72
2021/09/13 16:17:02;;;;;;;8.10;6.90;;;;;;;21.43;52.42;100082.83;112500;1199;95043;-72
2021/09/13 16:20:18;;;;;;;11.10;6.80;;;;;;;21.29;52.34;100081.42;112492;1201;137018;-72
2021/09/13 16:24:21;;;;;;;;;;;;;;;;;;;;;
2021/09/13 16:36:05;;;;;;;8.30;7.50;;;;;;;20.83;53.58;100091.02;111880;1212;95087;-72
2021/09/13 16:40:44;;;;;;;10.90;7.50;;;;;;;20.71;53.77;100095.70;111712;1212;136636;-73
2021/09/13 16:48:37;;;;;;;;;;;;;;;;;;;;;
2021/09/13 17:01:29;;;;;;;8.80;7.90;;;;;;;20.15;55.44;100094.44;111289;1216;94923;-73
2021/09/13 17:05:04;;;;;;;9.90;8.20;;;;;;;20.10;55.78;100098.65;111127;1214;136669;-73
2021/09/13 17:08:46;;;;;;;9.90;8.90;;;;;;;20.07;55.84;100102.45;111311;1213;104937;-73
2021/09/13 17:13:20;;;;;;;;;;;;;;;;;;;;;
2021/09/13 17:17:41;;;;;;;9.10;8.00;;;;;;;19.91;56.38;100102.90;111369;1215;137487;-72
2021/09/13 17:21:21;;;;;;;;;;;;;;;;;;;;;
2021/09/13 17:24:47;;;;;;;8.90;6.60;;;;;;;19.63;56.74;100115.88;110143;1225;108665;-73
2021/09/13 17:29:18;;;;;;;7.50;5.90;;;;;;;19.54;56.94;100114.40;110193;1229;137633;-73
2021/09/13 17:33:13;;;;;;;9.80;6.60;;;;;;;19.45;57.05;100116.46;109990;1225;109386;-73
2021/09/13 17:45:22;;;;;;;;;;;;;;;;;;;;;
2021/09/13 17:53:45;;;;;;;7.30;5.70;;;;;;;18.80;57.27;100139.86;111952;1205;136305;-73
2021/09/13 17:57:40;;;;;;;8.50;6.00;;;;;;;18.70;57.57;100142.80;111496;1221;107091;-74
2021/09/13 18:01:48;;;;;;;8.00;5.80;;;;;;;18.64;57.68;100140.16;111547;1221;107428;-74
2021/09/13 18:06:24;;;;;;;9.10;5.50;;;;;;;18.52;57.77;100140.96;111134;1224;136920;-73
2021/09/13 18:09:23;;;;;;;;;;;;;;;;;;;;;
2021/09/13 18:14:00;;;;;;;8.30;6.60;;;;;;;18.35;58.07;100148.77;110562;1227;136711;-74
2021/09/13 18:18:05;;;;;;;9.00;6.70;;;;;;;18.27;58.09;100152.68;110196;1230;136849;-73
2021/09/13 18:26:16;;;;;;;6.80;5.80;;;;;;;18.16;58.54;100162.05;110026;1230;136826;-73
2021/09/13 18:33:52;;;;;;;;;;;;;;;;;;;;;
2021/09/13 18:41:24;;;;;;;7.70;5.70;;;;;;;17.91;58.90;100167.64;109571;1235;137635;-72
2021/09/13 18:45:03;;;;;;;;;;;;;;;;;;;;;
2021/09/13 18:49:35;;;;;;;6.20;5.40;;;;;;;17.86;59.29;100175.22;109824;1233;136986;-73
2021/09/13 18:53:40;;;;;;;10.10;6.50;;;;;;;17.83;59.27;100180.65;109900;1231;95054;-73
2021/09/13 18:57:37;;;;;;;7.30;4.70;;;;;;;17.78;59.37;100180.63;109859;1228;110070;-73
2021/09/13 19:01:07;;;;;;;;;;;;;;;;;;;;;
2021/09/13 19:09:44;;;;;;;15.40;11.90;;;;;;;17.59;59.69;100193.59;109616;1229;94991;-72
2021/09/13 19:17:02;;;;;;;;;;;;;;;;;;;;;
2021/09/13 19:29:05;;;;;;;8.80;6.40;;;;;;;17.37;60.69;100211.96;111335;1221;635830;-72
2021/09/13 19:33:14;;;;;;;8.20;5.70;;;;;;;17.37;60.83;100219.17;112013;1209;136293;-73
2021/09/13 19:37:22;;;;;;;11.10;5.60;;;;;;;17.33;60.76;100222.60;111947;1214;136672;-73
2021/09/13 19:41:32;;;;;;;8.80;5.60;;;;;;;17.31;60.95;100228.35;111886;1216;108507;-73
2021/09/13 19:49:54;;;;;;;;;;;;;;;;;;;;;
2021/09/13 19:54:31;;;;;;;10.70;6.20;;;;;;;17.22;61.19;100231.35;110532;1227;93951;-73
2021/09/13 20:05:41;;;;;;;9.00;5.90;;;;;;;17.08;61.56;100237.64;111355;1221;635808;-73
2021/09/13 20:09:41;;;;;;;;;;;;;;;;;;;;;
2021/09/13 20:17:39;;;;;;;11.00;6.00;;;;;;;16.87;62.08;100238.13;112098;1213;108139;-73
2021/09/13 20:21:48;;;;;;;7.60;5.70;;;;;;;16.85;62.21;100241.61;112044;1214;136777;-72
2021/09/13 20:30:17;;;;;;;;;;;;;;;;;;;;;
2021/09/13 20:34:13;;;;;;;;;;;;;;;;;;;;;
2021/09/13 20:38:02;;;;;;;;;;;;;;;;;;;;;
2021/09/13 20:46:00;;;;;;;11.20;9.20;;;;;;;16.53;63.01;100251.66;111415;1218;636080;-73
2021/09/13 20:50:09;;;;;;;7.80;5.90;;;;;;;16.48;63.21;100257.05;112298;1208;94162;-73
2021/09/13 20:54:19;;;;;;;9.80;6.10;;;;;;;16.41;63.32;100266.43;112143;1209;93913;-72
2021/09/13 20:58:16;;;;;;;;;;;;;;;;;;;;;
2021/09/13 21:02:18;;;;;;;11.90;7.70;;;;;;;16.28;63.70;100262.17;112159;1206;106363;-72
2021/09/13 21:11:00;;;;;;;12.70;9.50;;;;;;;16.20;63.92;100265.95;111708;1211;136803;-73
2021/09/13 21:14:39;;;;;;;;;;;;;;;;;;;;;
2021/09/13 21:18:36;;;;;;;;;;;;;;;;;;;;;
2021/09/13 21:23:08;;;;;;;11.10;6.50;;;;;;;16.07;64.46;100258.77;110051;1225;137821;-73
2021/09/13 21:27:15;;;;;;;8.90;6.50;;;;;;;16.05;64.51;100260.48;109799;1233;108229;-72
2021/09/13 21:39:13;;;;;;;12.60;7.90;;;;;;;15.88;64.94;100267.72;109576;1230;108669;-73
2021/09/13 21:43:11;;;;;;;10.50;6.70;;;;;;;15.91;65.14;100267.76;111314;1221;635742;-72
2021/09/13 21:51:29;;;;;;;9.00;6.70;;;;;;;15.83;65.33;100270.27;111673;1214;93915;-73
2021/09/13 21:55:37;;;;;;;10.20;8.10;;;;;;;15.84;65.56;100276.04;111322;1219;108172;-73
2021/09/13 22:12:45;;;;;;;10.60;7.30;;;;;;;15.65;65.95;100292.59;109682;1228;137070;-73
2021/09/13 22:16:42;;;;;;;;;;;;;;;;;;;;;
2021/09/13 22:20:48;;;;;;;;;;;;;;;;;;;;;
2021/09/13 22:24:58;;;;;;;9.90;7.00;;;;;;;15.52;66.34;100295.70;111788;1211;136785;-72
2021/09/13 22:37:51;;;;;;;11.40;7.30;;;;;;;15.54;66.82;100299.67;111252;1217;636707;-72
2021/09/13 22:41:49;;;;;;;;;;;;;;;;;;;;;
2021/09/13 22:50:18;;;;;;;11.70;7.30;;;;;;;15.66;66.90;100296.39;111710;1216;136837;-73
2021/09/13 22:54:26;;;;;;;10.10;6.90;;;;;;;15.72;66.95;100295.73;111313;1216;106251;-72
2021/09/13 23:20:38;;;;;;;10.50;7.20;;;;;;;15.91;66.91;100301.04;111624;1220;136606;-72
2021/09/13 23:24:30;;;;;;;;;;;;;;;;;;;;;
2021/09/13 23:32:57;;;;;;;10.40;7.10;;;;;;;15.90;66.80;100297.05;109999;1232;137813;-74
2021/09/13 23:37:04;;;;;;;9.80;6.70;;;;;;;15.94;66.81;100306.49;109909;1229;93941;-73
2021/09/13 23:41:10;;;;;;;9.80;7.10;;;;;;;15.96;67.03;100307.64;109438;1236;136414;-73
2021/09/13 23:44:43;;;;;;;;;;;;;;;;;;;;;
2021/09/13 23:52:52;;;;;;;;;;;;;;;;;;;;;
